createdAt,value
2022-11-15T00:00:09.234Z,99.99
2022-11-15T00:01:09.138Z,99.99
2022-11-15T00:02:09.158Z,99.99
2022-11-15T00:03:09.100Z,99.99
2022-11-15T00:04:09.091Z,99.99
2022-11-15T00:05:09.090Z,99.99
2022-11-15T00:06:09.060Z,99.99
2022-11-15T00:07:10.513Z,99.99
2022-11-15T00:08:09.101Z,99.99
2022-11-15T00:09:09.020Z,99.99
2022-11-15T00:10:09.018Z,99.99
2022-11-15T00:11:09.005Z,99.99
2022-11-15T00:12:09.018Z,99.99
2022-11-15T00:13:08.976Z,99.99
2022-11-15T00:14:08.987Z,99.99
2022-11-15T00:15:08.966Z,99.99
2022-11-15T00:16:08.946Z,99.99
2022-11-15T00:17:08.944Z,99.99
2022-11-15T00:18:08.925Z,99.99
2022-11-15T00:19:08.922Z,99.99
2022-11-15T00:20:08.964Z,99.99
2022-11-15T00:21:08.874Z,99.99
2022-11-15T00:22:08.899Z,99.99
2022-11-15T00:23:08.864Z,99.99
2022-11-15T00:24:08.856Z,99.99
2022-11-15T00:25:08.859Z,99.99
2022-11-15T00:26:08.848Z,99.99
2022-11-15T00:27:08.819Z,99.99
2022-11-15T00:28:08.842Z,99.99
2022-11-15T00:29:08.855Z,99.99
2022-11-15T00:30:08.811Z,99.99
2022-11-15T00:31:09.460Z,99.99
2022-11-15T00:32:08.803Z,99.99
2022-11-15T00:33:08.781Z,99.99
2022-11-15T00:34:08.794Z,99.99
2022-11-15T00:35:08.776Z,99.99
2022-11-15T00:36:08.761Z,99.99
2022-11-15T00:37:08.759Z,99.99
2022-11-15T00:38:08.691Z,99.99
2022-11-15T00:39:08.673Z,99.99
2022-11-15T00:40:08.663Z,99.99
2022-11-15T00:41:09.907Z,99.99
2022-11-15T00:42:08.668Z,99.99
2022-11-15T00:43:08.620Z,99.99
2022-11-15T00:44:08.614Z,99.99
2022-11-15T00:45:08.588Z,99.99
2022-11-15T00:46:08.578Z,99.99
2022-11-15T00:47:08.558Z,99.99
2022-11-15T00:48:08.606Z,99.99
2022-11-15T00:49:08.549Z,99.99
2022-11-15T00:50:11.702Z,99.99
2022-11-15T00:51:09.553Z,99.99
2022-11-15T00:52:08.508Z,99.99
2022-11-15T00:53:08.501Z,99.99
2022-11-15T00:54:08.493Z,99.99
2022-11-15T00:55:08.479Z,99.99
2022-11-15T00:56:08.455Z,99.99
2022-11-15T00:57:08.452Z,99.99
2022-11-15T00:58:08.443Z,99.99
2022-11-15T00:59:08.416Z,99.99
2022-11-15T01:00:08.435Z,99.99
2022-11-15T01:01:08.471Z,99.99
2022-11-15T01:02:08.406Z,99.99
2022-11-15T01:03:08.384Z,99.99
2022-11-15T01:04:08.373Z,99.99
2022-11-15T01:05:08.352Z,99.99
2022-11-15T01:06:08.352Z,99.99
2022-11-15T01:07:08.536Z,99.99
2022-11-15T01:08:08.322Z,99.99
2022-11-15T01:09:08.311Z,99.99
2022-11-15T01:10:08.311Z,99.99
2022-11-15T01:11:08.285Z,99.99
2022-11-15T01:12:08.280Z,99.99
2022-11-15T01:13:08.241Z,99.99
2022-11-15T01:14:08.261Z,99.99
2022-11-15T01:15:08.230Z,99.99
2022-11-15T01:16:08.222Z,99.99
2022-11-15T01:17:08.210Z,99.99
2022-11-15T01:18:08.192Z,99.99
2022-11-15T01:19:08.169Z,99.99
2022-11-15T01:20:08.168Z,99.99
2022-11-15T01:21:08.168Z,99.99
2022-11-15T01:22:08.148Z,99.99
2022-11-15T01:23:08.127Z,99.99
2022-11-15T01:24:08.114Z,99.99
2022-11-15T01:25:08.121Z,99.99
2022-11-15T01:26:08.088Z,99.99
2022-11-15T01:27:08.077Z,99.99
2022-11-15T01:28:08.067Z,99.99
2022-11-15T01:29:08.054Z,99.99
2022-11-15T01:30:08.103Z,99.99
2022-11-15T01:31:08.044Z,99.99
2022-11-15T01:32:08.022Z,99.99
2022-11-15T01:33:08.027Z,99.99
2022-11-15T01:34:07.994Z,99.99
2022-11-15T01:35:07.994Z,99.99
2022-11-15T01:36:07.994Z,99.99
2022-11-15T01:37:08.126Z,99.99
2022-11-15T01:38:07.953Z,99.99
2022-11-15T01:39:07.964Z,99.99
2022-11-15T01:40:07.925Z,99.99
2022-11-15T01:41:07.921Z,99.99
2022-11-15T01:42:07.924Z,99.99
2022-11-15T01:43:07.897Z,99.99
2022-11-15T01:44:07.874Z,99.99
2022-11-15T01:45:07.909Z,99.99
2022-11-15T01:46:07.881Z,99.99
2022-11-15T01:47:07.854Z,99.99
2022-11-15T01:48:07.824Z,99.99
2022-11-15T01:49:07.812Z,99.99
2022-11-15T01:50:07.804Z,99.99
2022-11-15T01:51:07.799Z,99.99
2022-11-15T01:52:07.802Z,99.99
2022-11-15T01:53:07.777Z,99.99
2022-11-15T01:54:07.751Z,99.99
2022-11-15T01:55:07.743Z,99.99
2022-11-15T01:56:07.732Z,99.99
2022-11-15T01:57:07.880Z,99.99
2022-11-15T01:58:07.699Z,99.99
2022-11-15T01:59:07.727Z,99.99
2022-11-15T02:00:07.709Z,99.99
2022-11-15T02:01:07.739Z,99.99
2022-11-15T02:02:07.679Z,99.99
2022-11-15T02:03:07.659Z,99.99
2022-11-15T02:04:07.627Z,99.99
2022-11-15T02:05:07.605Z,99.99
2022-11-15T02:06:07.616Z,99.99
2022-11-15T02:07:07.664Z,99.99
2022-11-15T02:08:07.567Z,99.99
2022-11-15T02:09:07.559Z,99.99
2022-11-15T02:10:07.727Z,99.99
2022-11-15T02:11:07.558Z,99.99
2022-11-15T02:12:07.547Z,99.99
2022-11-15T02:13:07.511Z,99.99
2022-11-15T02:14:07.502Z,99.99
2022-11-15T02:15:07.517Z,99.99
2022-11-15T02:16:07.537Z,99.99
2022-11-15T02:17:07.462Z,99.99
2022-11-15T02:18:07.451Z,99.99
2022-11-15T02:19:07.433Z,99.99
2022-11-15T02:20:07.684Z,99.99
2022-11-15T02:21:07.421Z,99.99
2022-11-15T02:22:07.402Z,99.99
2022-11-15T02:23:07.383Z,99.99
2022-11-15T02:24:07.383Z,99.99
2022-11-15T02:25:07.368Z,99.99
2022-11-15T02:26:07.342Z,99.99
2022-11-15T02:27:07.340Z,99.99
2022-11-15T02:28:07.314Z,99.99
2022-11-15T02:29:07.313Z,99.99
2022-11-15T02:30:07.313Z,99.99
2022-11-15T02:31:07.293Z,99.99
2022-11-15T02:32:07.279Z,99.99
2022-11-15T02:33:07.260Z,99.99
2022-11-15T02:34:07.250Z,99.99
2022-11-15T02:35:07.238Z,99.99
2022-11-15T02:36:07.235Z,99.99
2022-11-15T02:37:07.209Z,99.99
2022-11-15T02:38:07.239Z,99.99
2022-11-15T02:39:07.189Z,99.99
2022-11-15T02:40:07.177Z,99.99
2022-11-15T02:41:07.185Z,99.99
2022-11-15T02:42:07.177Z,99.99
2022-11-15T02:43:08.554Z,99.99
2022-11-15T02:44:07.145Z,99.99
2022-11-15T02:45:07.156Z,99.99
2022-11-15T02:46:07.118Z,99.99
2022-11-15T02:47:07.097Z,99.99
2022-11-15T02:48:07.277Z,99.99
2022-11-15T02:49:07.115Z,99.99
2022-11-15T02:50:07.066Z,99.99
2022-11-15T02:51:07.055Z,99.99
2022-11-15T02:52:07.033Z,99.99
2022-11-15T02:53:07.094Z,99.99
2022-11-15T02:54:07.024Z,99.99
2022-11-15T02:55:07.002Z,99.99
2022-11-15T02:56:06.997Z,99.99
2022-11-15T02:57:06.968Z,99.99
2022-11-15T02:58:06.951Z,99.99
2022-11-15T02:59:06.935Z,99.99
2022-11-15T03:00:06.923Z,99.99
2022-11-15T03:01:07.094Z,99.99
2022-11-15T03:02:06.891Z,99.99
2022-11-15T03:03:06.880Z,99.99
2022-11-15T03:04:06.873Z,99.99
2022-11-15T03:05:06.904Z,99.99
2022-11-15T03:06:06.879Z,99.99
2022-11-15T03:07:06.868Z,99.99
2022-11-15T03:08:06.822Z,99.99
2022-11-15T03:09:06.831Z,99.99
2022-11-15T03:10:06.799Z,99.99
2022-11-15T03:11:06.819Z,99.99
2022-11-15T03:12:06.768Z,99.99
2022-11-15T03:13:06.753Z,99.99
2022-11-15T03:14:06.751Z,99.99
2022-11-15T03:15:06.728Z,99.99
2022-11-15T03:16:06.717Z,99.99
2022-11-15T03:17:06.759Z,99.99
2022-11-15T03:18:06.699Z,99.99
2022-11-15T03:19:06.684Z,99.99
2022-11-15T03:20:06.709Z,99.99
2022-11-15T03:21:06.664Z,99.99
2022-11-15T03:22:06.686Z,99.99
2022-11-15T03:23:06.631Z,99.99
2022-11-15T03:24:06.721Z,99.99
2022-11-15T03:25:06.608Z,99.99
2022-11-15T03:26:06.655Z,99.99
2022-11-15T03:27:06.608Z,99.99
2022-11-15T03:28:06.575Z,99.99
2022-11-15T03:29:06.556Z,99.99
2022-11-15T03:30:06.636Z,99.99
2022-11-15T03:31:06.544Z,99.99
2022-11-15T03:32:06.511Z,99.99
2022-11-15T03:33:06.504Z,99.99
2022-11-15T03:34:06.504Z,99.99
2022-11-15T03:35:06.486Z,99.99
2022-11-15T03:36:06.472Z,99.99
2022-11-15T03:37:06.462Z,99.99
2022-11-15T03:38:06.498Z,99.99
2022-11-15T03:39:06.448Z,99.99
2022-11-15T03:40:06.593Z,99.99
2022-11-15T03:41:06.457Z,99.99
2022-11-15T03:42:06.427Z,99.99
2022-11-15T03:43:06.411Z,99.99
2022-11-15T03:44:06.379Z,99.99
2022-11-15T03:45:06.374Z,99.99
2022-11-15T03:46:06.362Z,99.99
2022-11-15T03:47:06.339Z,99.99
2022-11-15T03:48:06.309Z,99.99
2022-11-15T03:49:06.301Z,99.99
2022-11-15T03:50:06.293Z,99.99
2022-11-15T03:51:06.292Z,99.99
2022-11-15T03:52:06.269Z,99.99
2022-11-15T03:53:06.264Z,99.99
2022-11-15T03:54:06.269Z,99.99
2022-11-15T03:55:06.251Z,99.99
2022-11-15T03:56:06.219Z,99.99
2022-11-15T03:57:06.222Z,99.99
2022-11-15T03:58:06.193Z,99.99
2022-11-15T03:59:06.188Z,99.99
2022-11-15T04:00:06.181Z,99.99
2022-11-15T04:01:06.221Z,99.99
2022-11-15T04:02:06.178Z,99.99
2022-11-15T04:03:06.154Z,99.99
2022-11-15T04:04:06.127Z,99.99
2022-11-15T04:05:06.117Z,99.99
2022-11-15T04:06:06.107Z,99.99
2022-11-15T04:07:06.140Z,99.99
2022-11-15T04:08:06.054Z,99.99
2022-11-15T04:09:06.064Z,99.99
2022-11-15T04:10:06.053Z,99.99
2022-11-15T04:11:06.069Z,99.99
2022-11-15T04:12:06.035Z,99.99
2022-11-15T04:13:06.055Z,99.99
2022-11-15T04:14:06.015Z,99.99
2022-11-15T04:15:05.993Z,99.99
2022-11-15T04:16:05.983Z,99.99
2022-11-15T04:17:05.973Z,99.99
2022-11-15T04:18:05.966Z,99.99
2022-11-15T04:19:05.954Z,99.99
2022-11-15T04:20:05.924Z,99.99
2022-11-15T04:21:05.902Z,99.99
2022-11-15T04:22:05.913Z,99.99
2022-11-15T04:23:05.876Z,99.99
2022-11-15T04:24:05.917Z,99.99
2022-11-15T04:25:05.873Z,99.99
2022-11-15T04:26:05.854Z,99.99
2022-11-15T04:27:05.850Z,99.99
2022-11-15T04:28:05.838Z,99.99
2022-11-15T04:29:05.810Z,99.99
2022-11-15T04:30:05.808Z,99.99
2022-11-15T04:31:05.828Z,99.99
2022-11-15T04:32:05.783Z,99.99
2022-11-15T04:33:05.760Z,99.99
2022-11-15T04:34:05.760Z,99.99
2022-11-15T04:35:05.736Z,99.99
2022-11-15T04:36:05.719Z,99.99
2022-11-15T04:37:05.775Z,99.99
2022-11-15T04:38:05.698Z,99.99
2022-11-15T04:39:05.687Z,99.99
2022-11-15T04:40:05.717Z,99.99
2022-11-15T04:41:05.656Z,99.99
2022-11-15T04:42:05.911Z,99.99
2022-11-15T04:43:05.667Z,99.99
2022-11-15T04:44:05.633Z,99.99
2022-11-15T04:45:05.634Z,99.99
2022-11-15T04:46:05.595Z,99.99
2022-11-15T04:47:05.646Z,99.99
2022-11-15T04:48:05.595Z,99.99
2022-11-15T04:49:05.713Z,99.99
2022-11-15T04:50:05.563Z,99.99
2022-11-15T04:51:05.564Z,99.99
2022-11-15T04:52:05.607Z,99.99
2022-11-15T04:53:05.666Z,99.99
2022-11-15T04:54:05.484Z,99.99
2022-11-15T04:55:08.332Z,99.99
2022-11-15T04:56:05.542Z,99.99
2022-11-15T04:57:05.475Z,99.99
2022-11-15T04:58:05.459Z,99.99
2022-11-15T04:59:05.442Z,99.99
2022-11-15T05:00:05.440Z,99.99
2022-11-15T05:01:05.495Z,99.99
2022-11-15T05:02:05.474Z,99.99
2022-11-15T05:03:05.381Z,99.99
2022-11-15T05:04:05.423Z,99.99
2022-11-15T05:05:05.358Z,99.99
2022-11-15T05:06:05.347Z,99.99
2022-11-15T05:07:05.408Z,99.99
2022-11-15T05:08:05.319Z,99.99
2022-11-15T05:09:05.315Z,99.99
2022-11-15T05:10:05.308Z,99.99
2022-11-15T05:11:05.370Z,99.99
2022-11-15T05:12:05.275Z,99.99
2022-11-15T05:13:05.281Z,99.99
2022-11-15T05:14:05.261Z,99.99
2022-11-15T05:15:05.228Z,99.99
2022-11-15T05:16:05.227Z,99.99
2022-11-15T05:17:05.215Z,99.99
2022-11-15T05:18:05.201Z,99.99
2022-11-15T05:19:05.184Z,99.99
2022-11-15T05:20:05.248Z,99.99
2022-11-15T05:21:05.198Z,99.99
2022-11-15T05:22:05.151Z,99.99
2022-11-15T05:23:05.175Z,99.99
2022-11-15T05:24:05.208Z,99.99
2022-11-15T05:25:05.115Z,99.99
2022-11-15T05:26:09.016Z,99.99
2022-11-15T05:27:05.093Z,99.99
2022-11-15T05:28:05.135Z,99.99
2022-11-15T05:29:05.057Z,99.99
2022-11-15T05:30:05.053Z,99.99
2022-11-15T05:31:05.065Z,99.99
2022-11-15T05:32:05.031Z,99.99
2022-11-15T05:33:05.104Z,99.99
2022-11-15T05:34:05.032Z,99.99
2022-11-15T05:35:04.980Z,99.99
2022-11-15T05:36:04.992Z,99.99
2022-11-15T05:37:04.984Z,99.99
2022-11-15T05:38:05.016Z,99.99
2022-11-15T05:39:05.003Z,99.99
2022-11-15T05:40:04.970Z,99.99
2022-11-15T05:41:05.015Z,99.99
2022-11-15T05:42:05.879Z,99.99
2022-11-15T05:43:04.990Z,99.99
2022-11-15T05:44:04.889Z,99.99
2022-11-15T05:45:05.090Z,99.99
2022-11-15T05:46:05.839Z,99.99
2022-11-15T05:47:04.853Z,99.99
2022-11-15T05:48:04.821Z,99.99
2022-11-15T05:49:04.814Z,99.99
2022-11-15T05:50:04.797Z,99.99
2022-11-15T05:51:04.869Z,99.99
2022-11-15T05:52:04.766Z,99.99
2022-11-15T05:53:05.496Z,99.99
2022-11-15T05:54:04.860Z,99.99
2022-11-15T05:55:04.739Z,99.99
2022-11-15T05:56:04.866Z,99.99
2022-11-15T05:57:04.704Z,99.99
2022-11-15T05:58:04.708Z,99.99
2022-11-15T05:59:04.685Z,99.99
2022-11-15T06:00:04.693Z,99.98
2022-11-15T06:01:04.664Z,99.35
2022-11-15T06:02:04.700Z,99.25
2022-11-15T06:03:04.624Z,99.05
2022-11-15T06:04:05.144Z,98.88
2022-11-15T06:05:04.605Z,98.88
2022-11-15T06:06:04.593Z,99.14
2022-11-15T06:07:04.731Z,99.44
2022-11-15T06:08:04.573Z,99.65
2022-11-15T06:09:04.557Z,99.86
2022-11-15T06:10:04.746Z,99.99
2022-11-15T06:11:04.553Z,99.99
2022-11-15T06:12:04.594Z,99.99
2022-11-15T06:13:04.546Z,99.99
2022-11-15T06:14:04.483Z,99.99
2022-11-15T06:15:04.516Z,99.99
2022-11-15T06:16:04.480Z,99.99
2022-11-15T06:17:10.052Z,99.99
2022-11-15T06:18:05.452Z,99.99
2022-11-15T06:19:04.441Z,99.99
2022-11-15T06:20:04.430Z,99.99
2022-11-15T06:21:04.441Z,99.99
2022-11-15T06:22:04.407Z,99.99
2022-11-15T06:23:04.381Z,99.99
2022-11-15T06:24:04.379Z,99.99
2022-11-15T06:25:05.829Z,99.99
2022-11-15T06:26:04.369Z,99.99
2022-11-15T06:27:04.330Z,99.99
2022-11-15T06:28:04.318Z,99.99
2022-11-15T06:29:04.437Z,99.99
2022-11-15T06:30:04.317Z,99.99
2022-11-15T06:31:04.317Z,99.99
2022-11-15T06:32:04.298Z,99.99
2022-11-15T06:33:04.267Z,99.99
2022-11-15T06:34:04.248Z,99.99
2022-11-15T06:35:04.238Z,99.99
2022-11-15T06:36:04.246Z,99.99
2022-11-15T06:37:04.218Z,99.99
2022-11-15T06:38:04.208Z,99.99
2022-11-15T06:39:04.266Z,99.99
2022-11-15T06:40:04.179Z,99.99
2022-11-15T06:41:04.167Z,99.99
2022-11-15T06:42:04.146Z,99.99
2022-11-15T06:43:04.138Z,99.99
2022-11-15T06:44:04.122Z,99.99
2022-11-15T06:45:04.113Z,99.99
2022-11-15T06:46:04.104Z,99.99
2022-11-15T06:47:04.860Z,99.99
2022-11-15T06:48:04.073Z,99.99
2022-11-15T06:49:09.397Z,99.99
2022-11-15T06:50:05.073Z,99.99
2022-11-15T06:51:04.068Z,99.99
2022-11-15T06:52:04.024Z,99.99
2022-11-15T06:53:04.013Z,99.99
2022-11-15T06:54:04.024Z,99.99
2022-11-15T06:55:03.979Z,99.99
2022-11-15T06:56:03.983Z,99.99
2022-11-15T06:57:03.950Z,99.99
2022-11-15T06:58:03.956Z,99.99
2022-11-15T06:59:03.932Z,99.99
2022-11-15T07:00:03.932Z,99.99
2022-11-15T07:01:03.972Z,99.99
2022-11-15T07:02:03.901Z,99.99
2022-11-15T07:03:03.890Z,99.99
2022-11-15T07:04:03.869Z,99.99
2022-11-15T07:05:03.861Z,99.99
2022-11-15T07:06:07.397Z,99.99
2022-11-15T07:07:03.894Z,99.99
2022-11-15T07:08:03.835Z,99.99
2022-11-15T07:09:10.931Z,99.99
2022-11-15T07:10:03.802Z,99.99
2022-11-15T07:11:03.789Z,99.99
2022-11-15T07:12:07.667Z,99.99
2022-11-15T07:13:03.757Z,99.99
2022-11-15T07:14:03.752Z,99.99
2022-11-15T07:15:03.742Z,99.99
2022-11-15T07:16:03.733Z,99.99
2022-11-15T07:17:03.727Z,99.99
2022-11-15T07:18:03.699Z,99.66
2022-11-15T07:19:03.678Z,99.66
2022-11-15T07:20:03.663Z,99.62
2022-11-15T07:21:03.680Z,98.33
2022-11-15T07:22:03.651Z,97.45
2022-11-15T07:23:03.673Z,97.34
2022-11-15T07:24:03.667Z,97.71
2022-11-15T07:25:03.617Z,97.91
2022-11-15T07:26:03.617Z,98.22
2022-11-15T07:27:03.589Z,98.63
2022-11-15T07:28:03.593Z,99.05
2022-11-15T07:29:03.569Z,98.84
2022-11-15T07:30:03.569Z,98.84
2022-11-15T07:31:03.555Z,98.99
2022-11-15T07:32:03.550Z,99.09
2022-11-15T07:33:03.526Z,99.30
2022-11-15T07:34:03.513Z,99.30
2022-11-15T07:35:03.496Z,99.40
2022-11-15T07:36:03.499Z,99.40
2022-11-15T07:37:03.504Z,99.51
2022-11-15T07:38:03.462Z,99.61
2022-11-15T07:39:03.445Z,99.61
2022-11-15T07:40:03.443Z,99.61
2022-11-15T07:41:03.465Z,99.61
2022-11-15T07:42:03.426Z,99.71
2022-11-15T07:43:03.392Z,99.71
2022-11-15T07:44:03.464Z,99.82
2022-11-15T07:45:03.368Z,99.66
2022-11-15T07:46:03.396Z,99.56
2022-11-15T07:47:03.336Z,99.66
2022-11-15T07:48:03.330Z,99.66
2022-11-15T07:49:03.378Z,99.66
2022-11-15T07:50:03.351Z,99.56
2022-11-15T07:51:03.305Z,99.56
2022-11-15T07:52:03.283Z,99.56
2022-11-15T07:53:03.260Z,99.56
2022-11-15T07:54:03.262Z,99.56
2022-11-15T07:55:03.238Z,99.46
2022-11-15T07:56:03.251Z,99.56
2022-11-15T07:57:07.187Z,99.52
2022-11-15T07:58:03.210Z,99.41
2022-11-15T07:59:03.189Z,99.31
2022-11-15T08:00:03.229Z,99.21
2022-11-15T08:01:03.293Z,99.10
2022-11-15T08:02:03.334Z,99.00
2022-11-15T08:03:03.165Z,99.00
2022-11-15T08:04:03.140Z,99.00
2022-11-15T08:05:03.116Z,99.00
2022-11-15T08:06:03.117Z,98.90
2022-11-15T08:07:03.154Z,98.85
2022-11-15T08:08:03.085Z,98.75
2022-11-15T08:09:03.078Z,98.65
2022-11-15T08:10:03.073Z,98.75
2022-11-15T08:11:03.080Z,98.65
2022-11-15T08:12:03.055Z,98.54
2022-11-15T08:13:03.081Z,98.44
2022-11-15T08:14:03.010Z,98.44
2022-11-15T08:15:02.990Z,98.33
2022-11-15T08:16:03.001Z,98.33
2022-11-15T08:17:02.967Z,98.29
2022-11-15T08:18:02.974Z,98.29
2022-11-15T08:19:02.933Z,98.08
2022-11-15T08:20:02.938Z,97.98
2022-11-15T08:21:02.924Z,97.98
2022-11-15T08:22:02.993Z,97.98
2022-11-15T08:23:02.893Z,97.98
2022-11-15T08:24:02.881Z,97.83
2022-11-15T08:25:02.964Z,97.73
2022-11-15T08:26:03.074Z,97.63
2022-11-15T08:27:02.853Z,97.63
2022-11-15T08:28:02.832Z,97.52
2022-11-15T08:29:02.809Z,97.52
2022-11-15T08:30:02.807Z,97.42
2022-11-15T08:31:02.870Z,97.31
2022-11-15T08:32:02.778Z,97.17
2022-11-15T08:33:02.759Z,97.06
2022-11-15T08:34:02.762Z,96.96
2022-11-15T08:35:02.750Z,96.96
2022-11-15T08:36:02.730Z,96.96
2022-11-15T08:37:02.708Z,96.86
2022-11-15T08:38:02.709Z,96.81
2022-11-15T08:39:02.699Z,96.71
2022-11-15T08:40:02.702Z,96.71
2022-11-15T08:41:02.662Z,96.50
2022-11-15T08:42:02.657Z,96.50
2022-11-15T08:43:02.628Z,96.41
2022-11-15T08:44:02.626Z,96.41
2022-11-15T08:45:02.610Z,96.30
2022-11-15T08:46:02.609Z,96.36
2022-11-15T08:47:02.588Z,96.36
2022-11-15T08:48:02.606Z,96.05
2022-11-15T08:49:02.575Z,95.95
2022-11-15T08:50:02.562Z,95.95
2022-11-15T08:51:02.532Z,95.95
2022-11-15T08:52:02.535Z,95.84
2022-11-15T08:53:02.499Z,95.74
2022-11-15T08:54:02.487Z,95.70
2022-11-15T08:55:02.505Z,95.59
2022-11-15T08:56:02.480Z,95.39
2022-11-15T08:57:02.445Z,95.28
2022-11-15T08:58:02.445Z,95.28
2022-11-15T08:59:02.443Z,95.18
2022-11-15T09:00:02.415Z,94.93
2022-11-15T09:01:02.467Z,95.03
2022-11-15T09:02:02.460Z,94.93
2022-11-15T09:03:02.393Z,94.73
2022-11-15T09:04:02.369Z,94.73
2022-11-15T09:05:02.361Z,94.62
2022-11-15T09:06:02.353Z,94.37
2022-11-15T09:07:02.821Z,94.27
2022-11-15T09:08:13.864Z,94.17
2022-11-15T09:09:03.857Z,94.07
2022-11-15T09:10:02.326Z,93.96
2022-11-15T09:11:02.289Z,93.65
2022-11-15T09:12:02.982Z,93.55
2022-11-15T09:13:02.243Z,93.44
2022-11-15T09:14:02.229Z,93.30
2022-11-15T09:15:02.210Z,93.20
2022-11-15T09:16:02.212Z,92.99
2022-11-15T09:17:02.199Z,92.89
2022-11-15T09:18:02.188Z,92.79
2022-11-15T09:19:02.171Z,92.79
2022-11-15T09:20:02.173Z,92.85
2022-11-15T09:21:02.173Z,92.74
2022-11-15T09:22:02.165Z,92.33
2022-11-15T09:23:02.121Z,92.44
2022-11-15T09:24:02.347Z,92.33
2022-11-15T09:25:02.130Z,92.23
2022-11-15T09:26:02.093Z,92.03
2022-11-15T09:27:02.059Z,91.67
2022-11-15T09:28:02.044Z,91.37
2022-11-15T09:29:02.038Z,91.06
2022-11-15T09:30:02.034Z,91.06
2022-11-15T09:31:02.014Z,90.85
2022-11-15T09:32:09.078Z,90.44
2022-11-15T09:33:02.004Z,90.50
2022-11-15T09:34:02.004Z,90.40
2022-11-15T09:35:01.973Z,90.09
2022-11-15T09:36:01.945Z,89.89
2022-11-15T09:37:01.941Z,89.69
2022-11-15T09:38:01.918Z,89.69
2022-11-15T09:39:01.912Z,89.37
2022-11-15T09:40:01.899Z,89.07
2022-11-15T09:41:01.897Z,88.82
2022-11-15T09:42:01.879Z,88.41
2022-11-15T09:43:01.897Z,88.10
2022-11-15T09:44:01.877Z,88.00
2022-11-15T09:45:01.872Z,87.90
2022-11-15T09:46:01.887Z,87.90
2022-11-15T09:47:01.815Z,87.90
2022-11-15T09:48:01.821Z,87.90
2022-11-15T09:49:01.773Z,87.59
2022-11-15T09:50:01.791Z,87.85
2022-11-15T09:51:01.784Z,87.76
2022-11-15T09:52:01.756Z,87.85
2022-11-15T09:53:01.753Z,87.85
2022-11-15T09:55:02.780Z,87.65
2022-11-15T09:56:01.708Z,87.65
2022-11-15T09:57:01.672Z,87.65
2022-11-15T09:58:01.703Z,87.61
2022-11-15T09:59:01.673Z,87.71
2022-11-15T10:00:23.922Z,87.61
2022-11-15T10:01:02.749Z,87.41
2022-11-15T10:02:01.641Z,87.20
2022-11-15T10:03:01.641Z,87.20
2022-11-15T10:04:01.587Z,87.10
2022-11-15T10:05:01.613Z,86.85
2022-11-15T10:06:01.594Z,86.85
2022-11-15T10:07:01.656Z,86.34
2022-11-15T10:08:01.621Z,86.55
2022-11-15T10:09:01.581Z,86.44
2022-11-15T10:10:01.514Z,86.65
2022-11-15T10:11:30.481Z,86.34
2022-11-15T10:12:02.490Z,86.24
2022-11-15T10:13:01.505Z,86.04
2022-11-15T10:14:01.461Z,85.93
2022-11-15T10:15:01.466Z,85.93
2022-11-15T10:16:01.496Z,85.93
2022-11-15T10:17:01.563Z,85.83
2022-11-15T10:18:01.488Z,85.93
2022-11-15T10:19:01.400Z,85.72
2022-11-15T10:20:05.583Z,85.79
2022-11-15T10:21:01.491Z,85.69
2022-11-15T10:22:01.375Z,85.48
2022-11-15T10:23:01.396Z,85.48
2022-11-15T10:24:01.365Z,85.28
2022-11-15T10:25:01.358Z,85.17
2022-11-15T10:26:06.679Z,85.07
2022-11-15T10:27:02.295Z,85.24
2022-11-15T10:28:01.313Z,85.14
2022-11-15T10:29:01.286Z,84.72
2022-11-15T10:30:01.289Z,84.93
2022-11-15T10:31:01.288Z,84.83
2022-11-15T10:32:01.219Z,84.93
2022-11-15T10:33:01.232Z,84.93
2022-11-15T10:34:01.204Z,85.03
2022-11-15T10:35:01.793Z,84.83
2022-11-15T10:36:01.184Z,84.83
2022-11-15T10:37:01.162Z,84.79
2022-11-15T10:38:01.171Z,84.69
2022-11-15T10:39:01.132Z,84.48
2022-11-15T10:40:01.133Z,84.58
2022-11-15T10:41:01.188Z,84.69
2022-11-15T10:42:03.829Z,84.38
2022-11-15T10:43:02.123Z,84.38
2022-11-15T10:44:01.091Z,84.48
2022-11-15T10:45:01.063Z,84.28
2022-11-15T10:46:13.559Z,84.28
2022-11-15T10:47:02.088Z,84.38
2022-11-15T10:48:01.032Z,84.69
2022-11-15T10:49:01.008Z,84.44
2022-11-15T10:50:00.985Z,84.44
2022-11-15T10:51:01.008Z,84.24
2022-11-15T10:52:01.059Z,84.14
2022-11-15T10:53:00.974Z,84.14
2022-11-15T10:54:00.961Z,83.73
2022-11-15T10:55:00.948Z,83.73
2022-11-15T10:56:00.979Z,83.52
2022-11-15T10:57:00.911Z,83.32
2022-11-15T10:58:00.938Z,83.59
2022-11-15T10:59:00.895Z,83.18
2022-11-15T11:00:00.887Z,83.38
2022-11-15T11:01:00.900Z,83.38
2022-11-15T11:02:00.855Z,83.28
2022-11-15T11:03:00.859Z,83.38
2022-11-15T11:04:00.849Z,83.18
2022-11-15T11:05:00.829Z,82.87
2022-11-15T11:06:00.847Z,82.67
2022-11-15T11:07:00.853Z,82.56
2022-11-15T11:08:00.789Z,82.42
2022-11-15T11:09:00.761Z,82.73
2022-11-15T11:10:00.767Z,82.83
2022-11-15T11:11:03.092Z,82.83
2022-11-15T11:12:00.711Z,82.63
2022-11-15T11:13:00.707Z,82.32
2022-11-15T11:14:00.706Z,82.53
2022-11-15T11:15:00.732Z,82.73
2022-11-15T11:16:00.692Z,82.63
2022-11-15T11:17:00.666Z,82.53
2022-11-15T11:18:00.628Z,82.63
2022-11-15T11:19:00.631Z,82.63
2022-11-15T11:20:00.643Z,82.53
2022-11-15T11:21:00.632Z,82.49
2022-11-15T11:22:00.587Z,82.69
2022-11-15T11:23:00.637Z,82.28
2022-11-15T11:24:00.581Z,82.08
2022-11-15T11:25:00.580Z,81.98
2022-11-15T11:26:00.531Z,81.98
2022-11-15T11:27:00.540Z,82.08
2022-11-15T11:28:00.531Z,81.77
2022-11-15T11:29:00.514Z,81.98
2022-11-15T11:30:00.501Z,81.63
2022-11-15T11:31:00.516Z,81.53
2022-11-15T11:32:00.472Z,81.73
2022-11-15T11:33:00.443Z,81.84
2022-11-15T11:34:00.478Z,81.43
2022-11-15T11:35:00.434Z,81.23
2022-11-15T11:36:00.403Z,81.12
2022-11-15T11:37:00.460Z,80.91
2022-11-15T11:38:00.365Z,81.23
2022-11-15T11:39:00.416Z,81.02
2022-11-15T11:40:00.350Z,81.32
2022-11-15T11:41:00.386Z,81.23
2022-11-15T11:42:00.377Z,81.32
2022-11-15T11:43:00.525Z,81.32
2022-11-15T11:44:00.338Z,81.02
2022-11-15T11:45:00.324Z,81.43
2022-11-15T11:46:00.293Z,81.18
2022-11-15T11:47:00.278Z,80.82
2022-11-15T11:48:00.301Z,80.88
2022-11-15T11:49:00.267Z,81.09
2022-11-15T11:50:00.230Z,81.18
2022-11-15T11:51:00.231Z,81.18
2022-11-15T11:52:00.270Z,81.18
2022-11-15T11:53:04.025Z,80.98
2022-11-15T11:54:00.209Z,80.98
2022-11-15T11:55:00.174Z,80.68
2022-11-15T11:56:00.157Z,80.57
2022-11-15T11:57:00.167Z,80.47
2022-11-15T11:58:00.167Z,80.68
2022-11-15T11:59:00.133Z,80.78
2022-11-15T12:00:00.105Z,80.68
2022-11-15T12:01:00.130Z,80.78
2022-11-15T12:02:00.312Z,80.57
2022-11-15T12:03:00.298Z,80.54
2022-11-15T12:04:00.039Z,80.54
2022-11-15T12:05:00.054Z,80.33
2022-11-15T12:06:00.090Z,80.33
2022-11-15T12:07:00.215Z,80.54
2022-11-15T12:08:03.264Z,80.64
2022-11-15T12:08:59.992Z,80.54
2022-11-15T12:09:59.973Z,80.43
2022-11-15T12:10:59.963Z,80.33
2022-11-15T12:11:59.936Z,80.43
2022-11-15T12:12:59.937Z,80.64
2022-11-15T12:13:59.959Z,80.64
2022-11-15T12:14:59.898Z,80.74
2022-11-15T12:15:59.926Z,80.64
2022-11-15T12:16:59.913Z,80.54
2022-11-15T12:17:59.857Z,80.43
2022-11-15T12:18:59.857Z,80.64
2022-11-15T12:19:59.858Z,80.54
2022-11-15T12:20:59.816Z,80.33
2022-11-15T12:21:59.814Z,80.40
2022-11-15T12:22:59.856Z,80.40
2022-11-15T12:23:59.786Z,80.29
2022-11-15T12:24:59.770Z,80.09
2022-11-15T12:25:59.760Z,80.19
2022-11-15T12:26:59.780Z,79.89
2022-11-15T12:27:59.749Z,79.89
2022-11-15T12:29:07.326Z,79.99
2022-11-15T12:30:00.707Z,79.99
2022-11-15T12:30:59.697Z,79.79
2022-11-15T12:31:59.697Z,79.89
2022-11-15T12:32:59.696Z,79.79
2022-11-15T12:34:02.976Z,79.79
2022-11-15T12:34:59.691Z,79.38
2022-11-15T12:35:59.656Z,79.54
2022-11-15T12:36:59.633Z,79.34
2022-11-15T12:37:59.630Z,79.24
2022-11-15T12:38:59.638Z,79.24
2022-11-15T12:40:03.462Z,79.24
2022-11-15T12:40:59.579Z,79.44
2022-11-15T12:41:59.557Z,79.24
2022-11-15T12:42:59.537Z,79.24
2022-11-15T12:43:59.544Z,78.93
2022-11-15T12:44:59.539Z,78.73
2022-11-15T12:45:59.524Z,78.83
2022-11-15T12:46:59.516Z,78.73
2022-11-15T12:47:59.506Z,78.73
2022-11-15T12:48:59.482Z,78.42
2022-11-15T12:49:59.457Z,78.63
2022-11-15T12:50:59.442Z,78.63
2022-11-15T12:51:59.461Z,78.59
2022-11-15T12:52:59.467Z,78.39